sensor_id;sensor_type;location;lat;lon;timestamp;pressure;altitude;pressure_sealevel;temperature;humidity
54194;BME280;40102;50.906;6.972;2023-02-14T00:00:01;102884.09;;;6.51;75.04
54194;BME280;40102;50.906;6.972;2023-02-14T00:02:26;102881.53;;;6.34;76.21
54194;BME280;40102;50.906;6.972;2023-02-14T00:04:52;102884.25;;;6.14;76.55
54194;BME280;40102;50.906;6.972;2023-02-14T00:07:17;102875.44;;;5.91;77.83
54194;BME280;40102;50.906;6.972;2023-02-14T00:09:42;102883.38;;;5.88;78.34
54194;BME280;40102;50.906;6.972;2023-02-14T00:12:08;102887.81;;;5.81;79.07
54194;BME280;40102;50.906;6.972;2023-02-14T00:14:33;102887.81;;;5.81;79.34
54194;BME280;40102;50.906;6.972;2023-02-14T00:17:17;102883.41;;;5.82;79.43
54194;BME280;40102;50.906;6.972;2023-02-14T00:19:42;102883.41;;;5.79;79.60
54194;BME280;40102;50.906;6.972;2023-02-14T00:22:08;102899.31;;;5.88;79.30
54194;BME280;40102;50.906;6.972;2023-02-14T00:24:33;102892.25;;;5.89;78.84
54194;BME280;40102;50.906;6.972;2023-02-14T00:26:58;102896.69;;;5.91;78.90
54194;BME280;40102;50.906;6.972;2023-02-14T00:29:26;102888.72;;;5.91;78.96
54194;BME280;40102;50.906;6.972;2023-02-14T00:31:52;102872.78;;;5.99;78.60
54194;BME280;40102;50.906;6.972;2023-02-14T00:34:18;102879.88;;;5.97;78.07
54194;BME280;40102;50.906;6.972;2023-02-14T00:36:44;102882.50;;;6.03;78.03
54194;BME280;40102;50.906;6.972;2023-02-14T00:39:11;102870.97;;;6.10;77.88
54194;BME280;40102;50.906;6.972;2023-02-14T00:41:38;102868.31;;;6.08;77.21
54194;BME280;40102;50.906;6.972;2023-02-14T00:44:04;102874.50;;;6.15;77.76
54194;BME280;40102;50.906;6.972;2023-02-14T00:46:29;102871.84;;;6.16;77.39
54194;BME280;40102;50.906;6.972;2023-02-14T00:48:55;102863.84;;;6.24;77.20
54194;BME280;40102;50.906;6.972;2023-02-14T00:51:21;102862.03;;;6.35;75.91
54194;BME280;40102;50.906;6.972;2023-02-14T00:53:48;102864.66;;;6.38;75.48
54194;BME280;40102;50.906;6.972;2023-02-14T00:56:14;102859.41;;;6.25;75.62
54194;BME280;40102;50.906;6.972;2023-02-14T00:58:40;102861.16;;;6.29;76.28
54194;BME280;40102;50.906;6.972;2023-02-14T01:01:06;102862.03;;;6.31;75.91
54194;BME280;40102;50.906;6.972;2023-02-14T01:03:32;102860.25;;;6.36;76.14
54194;BME280;40102;50.906;6.972;2023-02-14T01:05:57;102868.16;;;6.49;76.10
54194;BME280;40102;50.906;6.972;2023-02-14T01:08:23;102862.78;;;6.60;74.94
54194;BME280;40102;50.906;6.972;2023-02-14T01:10:49;102857.50;;;6.53;74.60
54194;BME280;40102;50.906;6.972;2023-02-14T01:13:14;102846.00;;;6.47;75.41
54194;BME280;40102;50.906;6.972;2023-02-14T01:15:42;102857.56;;;6.42;75.04
54194;BME280;40102;50.906;6.972;2023-02-14T01:18:07;102846.94;;;6.40;75.78
54194;BME280;40102;50.906;6.972;2023-02-14T01:20:33;102848.59;;;6.60;75.25
54194;BME280;40102;50.906;6.972;2023-02-14T01:30:13;102856.34;;;6.98;73.25
54194;BME280;40102;50.906;6.972;2023-02-14T01:32:38;102849.22;;;7.03;72.61
54194;BME280;40102;50.906;6.972;2023-02-14T01:35:04;102850.13;;;7.02;72.03
54194;BME280;40102;50.906;6.972;2023-02-14T01:37:29;102851.97;;;6.91;71.85
54194;BME280;40102;50.906;6.972;2023-02-14T01:39:55;102854.63;;;6.89;72.45
54194;BME280;40102;50.906;6.972;2023-02-14T01:42:20;102850.34;;;6.68;72.78
54194;BME280;40102;50.906;6.972;2023-02-14T02:44:28;102826.84;;;4.98;80.12
54194;BME280;40102;50.906;6.972;2023-02-14T02:47:03;102818.00;;;5.00;80.63
54194;BME280;40102;50.906;6.972;2023-02-14T02:49:53;102815.38;;;5.12;80.44
54194;BME280;40102;50.906;6.972;2023-02-14T02:53:03;102819.75;;;5.30;79.34
54194;BME280;40102;50.906;6.972;2023-02-14T02:55:49;102825.94;;;5.44;78.92
54194;BME280;40102;50.906;6.972;2023-02-14T02:58:41;102819.75;;;5.35;78.48
54194;BME280;40102;50.906;6.972;2023-02-14T03:01:15;102824.16;;;5.33;78.47
54194;BME280;40102;50.906;6.972;2023-02-14T03:03:46;102820.63;;;5.26;78.14
54194;BME280;40102;50.906;6.972;2023-02-14T03:06:31;102824.22;;;5.13;79.64
54194;BME280;40102;50.906;6.972;2023-02-14T03:08:57;102821.53;;;4.96;79.98
54194;BME280;40102;50.906;6.972;2023-02-14T03:11:33;102829.50;;;5.11;81.04
54194;BME280;40102;50.906;6.972;2023-02-14T03:14:16;102822.44;;;5.13;79.51
54194;BME280;40102;50.906;6.972;2023-02-14T03:16:53;102836.59;;;5.18;79.16
54194;BME280;40102;50.906;6.972;2023-02-14T03:22:52;102828.63;;;5.05;79.48
54194;BME280;40102;50.906;6.972;2023-02-14T03:28:16;102837.47;;;4.99;79.87
54194;BME280;40102;50.906;6.972;2023-02-14T03:33:47;102836.53;;;4.76;80.47
54194;BME280;40102;50.906;6.972;2023-02-14T03:36:38;102839.19;;;4.71;80.99
54194;BME280;40102;50.906;6.972;2023-02-14T03:39:10;102834.75;;;4.69;81.00
54194;BME280;40102;50.906;6.972;2023-02-14T03:41:45;102841.84;;;4.71;81.36
54194;BME280;40102;50.906;6.972;2023-02-14T03:44:17;102840.94;;;4.71;81.51
54194;BME280;40102;50.906;6.972;2023-02-14T03:46:48;102840.06;;;4.72;81.79
54194;BME280;40102;50.906;6.972;2023-02-14T03:49:19;102831.25;;;4.82;81.73
54194;BME280;40102;50.906;6.972;2023-02-14T03:51:48;102839.25;;;5.05;80.38
54194;BME280;40102;50.906;6.972;2023-02-14T03:54:15;102838.34;;;5.13;79.90
54194;BME280;40102;50.906;6.972;2023-02-14T03:56:47;102829.50;;;5.16;79.31
54194;BME280;40102;50.906;6.972;2023-02-14T03:59:16;102830.38;;;5.35;79.48
54194;BME280;40102;50.906;6.972;2023-02-14T04:01:49;102839.22;;;5.35;78.44
54194;BME280;40102;50.906;6.972;2023-02-14T04:04:19;102838.31;;;5.35;78.54
54194;BME280;40102;50.906;6.972;2023-02-14T04:06:45;102833.91;;;5.43;78.68
54194;BME280;40102;50.906;6.972;2023-02-14T04:09:11;102830.34;;;5.45;78.27
54194;BME280;40102;50.906;6.972;2023-02-14T04:11:36;102833.88;;;5.57;77.56
54194;BME280;40102;50.906;6.972;2023-02-14T04:14:03;102830.31;;;5.62;77.36
54194;BME280;40102;50.906;6.972;2023-02-14T04:16:28;102817.94;;;5.57;77.60
54194;BME280;40102;50.906;6.972;2023-02-14T04:18:54;102836.53;;;5.66;76.96
54194;BME280;40102;50.906;6.972;2023-02-14T04:21:37;102821.50;;;5.51;77.18
54194;BME280;40102;50.906;6.972;2023-02-14T04:24:03;102831.22;;;5.63;78.19
54194;BME280;40102;50.906;6.972;2023-02-14T04:26:28;102824.13;;;5.59;76.91
54194;BME280;40102;50.906;6.972;2023-02-14T04:28:54;102820.59;;;5.61;76.94
54194;BME280;40102;50.906;6.972;2023-02-14T04:31:19;102819.72;;;5.51;76.56
54194;BME280;40102;50.906;6.972;2023-02-14T04:33:44;102825.03;;;5.42;77.65
54194;BME280;40102;50.906;6.972;2023-02-14T04:36:15;102823.28;;;5.43;78.38
54194;BME280;40102;50.906;6.972;2023-02-14T04:38:40;102815.31;;;5.53;78.30
54194;BME280;40102;50.906;6.972;2023-02-14T04:41:05;102805.53;;;5.69;76.99
54194;BME280;40102;50.906;6.972;2023-02-14T04:43:31;102809.06;;;5.77;76.26
54194;BME280;40102;50.906;6.972;2023-02-14T04:45:56;102812.59;;;5.90;76.36
54194;BME280;40102;50.906;6.972;2023-02-14T04:48:21;102809.03;;;5.91;74.86
54194;BME280;40102;50.906;6.972;2023-02-14T04:50:51;102804.63;;;5.92;75.79
54194;BME280;40102;50.906;6.972;2023-02-14T04:53:17;102821.41;;;5.86;75.03
54194;BME280;40102;50.906;6.972;2023-02-14T04:55:43;102801.94;;;5.87;75.96
54194;BME280;40102;50.906;6.972;2023-02-14T04:58:09;102797.50;;;5.88;75.76
54194;BME280;40102;50.906;6.972;2023-02-14T05:00:34;102795.78;;;5.76;75.36
54194;BME280;40102;50.906;6.972;2023-02-14T05:02:59;102799.31;;;5.79;75.73
54194;BME280;40102;50.906;6.972;2023-02-14T05:05:25;102798.41;;;5.88;75.83
54194;BME280;40102;50.906;6.972;2023-02-14T05:07:50;102798.38;;;6.00;75.15
54194;BME280;40102;50.906;6.972;2023-02-14T05:10:15;102799.22;;;6.13;74.82
54194;BME280;40102;50.906;6.972;2023-02-14T05:12:41;102798.31;;;6.18;73.47
54194;BME280;40102;50.906;6.972;2023-02-14T05:15:06;102804.53;;;6.16;73.40
54194;BME280;40102;50.906;6.972;2023-02-14T05:17:32;102803.66;;;6.09;74.03
54194;BME280;40102;50.906;6.972;2023-02-14T05:19:57;102797.44;;;6.13;74.30
54194;BME280;40102;50.906;6.972;2023-02-14T05:22:23;102791.22;;;6.19;72.94
54194;BME280;40102;50.906;6.972;2023-02-14T05:24:48;102793.94;;;6.08;73.00
54194;BME280;40102;50.906;6.972;2023-02-14T05:27:13;102785.09;;;6.02;73.94
54194;BME280;40102;50.906;6.972;2023-02-14T05:29:39;102788.66;;;5.96;73.54
54194;BME280;40102;50.906;6.972;2023-02-14T05:32:04;102769.25;;;5.68;74.12
54194;BME280;40102;50.906;6.972;2023-02-14T05:34:29;102777.22;;;5.68;75.99
54194;BME280;40102;50.906;6.972;2023-02-14T05:36:54;102769.25;;;5.68;74.54
54194;BME280;40102;50.906;6.972;2023-02-14T05:39:20;102773.72;;;5.48;75.52
54194;BME280;40102;50.906;6.972;2023-02-14T05:41:45;102774.63;;;5.30;76.49
54194;BME280;40102;50.906;6.972;2023-02-14T05:44:10;102778.22;;;5.02;77.27
54194;BME280;40102;50.906;6.972;2023-02-14T05:46:36;102780.88;;;4.99;78.27
54194;BME280;40102;50.906;6.972;2023-02-14T05:49:02;102776.47;;;4.96;78.62
54194;BME280;40102;50.906;6.972;2023-02-14T05:51:27;102779.13;;;5.07;78.41
54194;BME280;40102;50.906;6.972;2023-02-14T05:53:52;102780.88;;;5.05;77.97
54194;BME280;40102;50.906;6.972;2023-02-14T05:56:18;102782.66;;;5.03;77.49
54194;BME280;40102;50.906;6.972;2023-02-14T05:58:43;102776.47;;;5.13;78.52
54194;BME280;40102;50.906;6.972;2023-02-14T06:01:08;102790.56;;;5.22;77.96
54194;BME280;40102;50.906;6.972;2023-02-14T06:03:33;102786.19;;;5.11;77.61
54194;BME280;40102;50.906;6.972;2023-02-14T06:05:59;102795.91;;;5.19;77.78
54194;BME280;40102;50.906;6.972;2023-02-14T06:08:24;102797.69;;;5.19;77.40
54194;BME280;40102;50.906;6.972;2023-02-14T06:10:50;102794.09;;;5.23;77.21
54194;BME280;40102;50.906;6.972;2023-02-14T06:13:15;102796.75;;;5.35;77.50
54194;BME280;40102;50.906;6.972;2023-02-14T06:15:40;102788.78;;;5.44;76.67
54194;BME280;40102;50.906;6.972;2023-02-14T06:18:06;102787.91;;;5.38;75.90
54194;BME280;40102;50.906;6.972;2023-02-14T06:20:31;102802.06;;;5.40;76.37
54194;BME280;40102;50.906;6.972;2023-02-14T06:22:56;102793.19;;;5.39;76.72
54194;BME280;40102;50.906;6.972;2023-02-14T06:25:23;102800.25;;;5.52;77.04
54194;BME280;40102;50.906;6.972;2023-02-14T06:27:49;102803.78;;;5.65;75.52
54194;BME280;40102;50.906;6.972;2023-02-14T06:30:15;102787.81;;;5.74;75.50
54194;BME280;40102;50.906;6.972;2023-02-14T06:32:41;102804.63;;;5.73;74.18
54194;BME280;40102;50.906;6.972;2023-02-14T06:35:06;102795.81;;;5.59;75.37
54194;BME280;40102;50.906;6.972;2023-02-14T06:37:32;102787.88;;;5.42;75.25
54194;BME280;40102;50.906;6.972;2023-02-14T06:39:58;102787.94;;;5.19;76.19
54194;BME280;40102;50.906;6.972;2023-02-14T06:42:23;102795.88;;;5.22;77.21
54194;BME280;40102;50.906;6.972;2023-02-14T06:44:48;102794.97;;;5.30;77.22
54194;BME280;40102;50.906;6.972;2023-02-14T06:47:14;102803.81;;;5.36;76.12
54194;BME280;40102;50.906;6.972;2023-02-14T06:49:40;102801.16;;;5.36;76.80
54194;BME280;40102;50.906;6.972;2023-02-14T06:52:05;102804.59;;;5.96;87.38
54194;BME280;40102;50.906;6.972;2023-02-14T06:54:31;102808.88;;;6.32;77.46
54194;BME280;40102;50.906;6.972;2023-02-14T06:56:56;102816.75;;;6.50;74.27
54194;BME280;40102;50.906;6.972;2023-02-14T06:59:21;102806.00;;;6.70;74.46
54194;BME280;40102;50.906;6.972;2023-02-14T07:01:47;102812.16;;;6.77;71.44
54194;BME280;40102;50.906;6.972;2023-02-14T07:04:13;102818.44;;;6.65;71.38
54194;BME280;40102;50.906;6.972;2023-02-14T07:06:38;102816.81;;;6.41;72.38
54194;BME280;40102;50.906;6.972;2023-02-14T07:09:04;102814.25;;;6.15;72.54
54194;BME280;40102;50.906;6.972;2023-02-14T07:11:29;102811.72;;;5.71;74.26
54194;BME280;40102;50.906;6.972;2023-02-14T07:13:54;102810.84;;;5.62;75.10
54194;BME280;40102;50.906;6.972;2023-02-14T07:16:20;102814.44;;;5.35;75.85
54194;BME280;40102;50.906;6.972;2023-02-14T07:18:45;102813.56;;;5.24;76.56
54194;BME280;40102;50.906;6.972;2023-02-14T07:21:10;102804.72;;;5.23;77.66
54194;BME280;40102;50.906;6.972;2023-02-14T07:23:36;102816.22;;;5.34;77.43
54194;BME280;40102;50.906;6.972;2023-02-14T07:26:01;102804.69;;;5.43;77.46
54194;BME280;40102;50.906;6.972;2023-02-14T07:28:27;102804.69;;;5.53;76.04
54194;BME280;40102;50.906;6.972;2023-02-14T07:30:54;102814.41;;;5.59;76.52
54194;BME280;40102;50.906;6.972;2023-02-14T07:33:19;102805.56;;;5.48;75.75
54194;BME280;40102;50.906;6.972;2023-02-14T07:35:45;102797.59;;;5.52;75.19
54194;BME280;40102;50.906;6.972;2023-02-14T07:38:10;102805.56;;;5.46;75.74
54194;BME280;40102;50.906;6.972;2023-02-14T07:40:36;102784.38;;;5.25;75.93
54194;BME280;40102;50.906;6.972;2023-02-14T07:43:02;102805.59;;;5.25;76.61
54194;BME280;40102;50.906;6.972;2023-02-14T07:45:27;102806.53;;;5.15;77.25
54194;BME280;40102;50.906;6.972;2023-02-14T07:47:53;102804.75;;;5.14;77.85
54194;BME280;40102;50.906;6.972;2023-02-14T07:50:21;102806.53;;;5.16;77.66
54194;BME280;40102;50.906;6.972;2023-02-14T07:52:47;102802.09;;;5.11;78.31
54194;BME280;40102;50.906;6.972;2023-02-14T07:55:12;102795.88;;;5.22;78.49
54194;BME280;40102;50.906;6.972;2023-02-14T07:57:38;102789.66;;;5.40;77.55
54194;BME280;40102;50.906;6.972;2023-02-14T08:00:05;102790.53;;;5.42;76.67
54194;BME280;40102;50.906;6.972;2023-02-14T08:02:30;102799.38;;;5.55;77.33
54194;BME280;40102;50.906;6.972;2023-02-14T08:04:55;102809.06;;;5.70;75.72
54194;BME280;40102;50.906;6.972;2023-02-14T08:07:21;102794.03;;;5.70;75.68
54194;BME280;40102;50.906;6.972;2023-02-14T08:09:46;102793.16;;;5.67;75.40
54194;BME280;40102;50.906;6.972;2023-02-14T08:12:11;102783.44;;;5.60;76.16
54194;BME280;40102;50.906;6.972;2023-02-14T08:14:55;102814.34;;;5.91;75.73
54194;BME280;40102;50.906;6.972;2023-02-14T08:17:40;102788.69;;;5.84;74.95
54194;BME280;40102;50.906;6.972;2023-02-14T08:20:06;102788.69;;;5.92;75.02
54194;BME280;40102;50.906;6.972;2023-02-14T08:22:34;102817.88;;;5.99;74.50
54194;BME280;40102;50.906;6.972;2023-02-14T08:24:59;102809.91;;;5.85;75.39
54194;BME280;40102;50.906;6.972;2023-02-14T08:27:25;102813.47;;;5.77;75.86
54194;BME280;40102;50.906;6.972;2023-02-14T08:29:52;102802.03;;;5.52;76.50
54194;BME280;40102;50.906;6.972;2023-02-14T08:32:17;102811.75;;;5.58;77.22
54194;BME280;40102;50.906;6.972;2023-02-14T08:34:45;102819.72;;;5.64;77.99
54194;BME280;40102;50.906;6.972;2023-02-14T08:37:11;102794.06;;;5.52;77.53
54194;BME280;40102;50.906;6.972;2023-02-14T08:39:37;102817.03;;;5.73;77.87
54194;BME280;40102;50.906;6.972;2023-02-14T08:42:03;102816.13;;;5.75;77.46
54194;BME280;40102;50.906;6.972;2023-02-14T08:44:28;102816.13;;;5.86;76.96
54194;BME280;40102;50.906;6.972;2023-02-14T08:46:54;102794.00;;;5.78;76.92
54194;BME280;40102;50.906;6.972;2023-02-14T08:49:19;102816.09;;;6.00;76.34
54194;BME280;40102;50.906;6.972;2023-02-14T08:51:44;102810.81;;;5.86;76.84
54194;BME280;40102;50.906;6.972;2023-02-14T08:54:10;102813.47;;;5.83;76.74
54194;BME280;40102;50.906;6.972;2023-02-14T08:56:35;102810.81;;;5.86;76.98
54194;BME280;40102;50.906;6.972;2023-02-14T08:59:02;102793.97;;;5.84;76.72
54194;BME280;40102;50.906;6.972;2023-02-14T09:01:28;102794.88;;;5.89;76.61
54194;BME280;40102;50.906;6.972;2023-02-14T09:03:53;102807.22;;;6.02;76.55
54194;BME280;40102;50.906;6.972;2023-02-14T09:06:19;102801.03;;;6.03;76.54
54194;BME280;40102;50.906;6.972;2023-02-14T09:08:44;102814.28;;;6.11;76.58
54194;BME280;40102;50.906;6.972;2023-02-14T09:11:17;102809.84;;;6.17;76.54
54194;BME280;40102;50.906;6.972;2023-02-14T09:13:43;102817.78;;;6.24;76.20
54194;BME280;40102;50.906;6.972;2023-02-14T09:16:10;102807.13;;;6.25;75.25
54194;BME280;40102;50.906;6.972;2023-02-14T09:18:36;102803.59;;;6.23;75.64
54194;BME280;40102;50.906;6.972;2023-02-14T09:21:07;102795.56;;;6.35;75.84
54194;BME280;40102;50.906;6.972;2023-02-14T09:23:33;102801.75;;;6.42;75.29
54194;BME280;40102;50.906;6.972;2023-02-14T09:25:59;102803.44;;;6.54;75.21
54194;BME280;40102;50.906;6.972;2023-02-14T09:28:25;102792.75;;;6.64;74.39
54194;BME280;40102;50.906;6.972;2023-02-14T09:30:50;102795.38;;;6.66;73.42
54194;BME280;40102;50.906;6.972;2023-02-14T09:33:16;102797.16;;;6.65;73.92
54194;BME280;40102;50.906;6.972;2023-02-14T09:35:41;102793.63;;;6.66;74.59
54194;BME280;40102;50.906;6.972;2023-02-14T09:38:09;102795.34;;;6.70;74.45
54194;BME280;40102;50.906;6.972;2023-02-14T09:40:41;102775.00;;;6.68;74.60
54194;BME280;40102;50.906;6.972;2023-02-14T09:43:25;102786.47;;;6.73;74.59
54194;BME280;40102;50.906;6.972;2023-02-14T09:45:57;102781.09;;;6.82;73.69
54194;BME280;40102;50.906;6.972;2023-02-14T09:48:39;102781.06;;;6.87;73.08
54194;BME280;40102;50.906;6.972;2023-02-14T09:51:26;102776.63;;;6.84;74.01
54194;BME280;40102;50.906;6.972;2023-02-14T09:54:02;102773.09;;;6.83;74.36
54194;BME280;40102;50.906;6.972;2023-02-14T09:59:14;102773.88;;;6.98;74.67
54194;BME280;40102;50.906;6.972;2023-02-14T10:01:49;102769.41;;;7.01;74.02
54194;BME280;40102;50.906;6.972;2023-02-14T10:04:37;102770.19;;;7.12;74.06
54194;BME280;40102;50.906;6.972;2023-02-14T10:07:17;102759.56;;;7.11;73.72
54194;BME280;40102;50.906;6.972;2023-02-14T10:09:57;102773.69;;;7.19;73.36
54194;BME280;40102;50.906;6.972;2023-02-14T10:12:28;102774.56;;;7.20;73.35
54194;BME280;40102;50.906;6.972;2023-02-14T10:14:58;102755.16;;;7.08;73.47
54194;BME280;40102;50.906;6.972;2023-02-14T10:17:45;102773.66;;;7.22;73.68
54194;BME280;40102;50.906;6.972;2023-02-14T10:20:21;102778.06;;;7.26;73.09
54194;BME280;40102;50.906;6.972;2023-02-14T10:23:01;102742.69;;;7.12;72.98
54194;BME280;40102;50.906;6.972;2023-02-14T10:25:32;102751.47;;;7.23;72.95
54194;BME280;40102;50.906;6.972;2023-02-14T10:28:01;102768.19;;;7.37;72.37
54194;BME280;40102;50.906;6.972;2023-02-14T10:30:35;102752.34;;;7.25;72.23
54194;BME280;40102;50.906;6.972;2023-02-14T10:33:10;102754.00;;;7.35;72.73
54194;BME280;40102;50.906;6.972;2023-02-14T10:35:47;102752.19;;;7.39;72.76
54194;BME280;40102;50.906;6.972;2023-02-14T10:46:26;102757.13;;;7.74;71.56
54194;BME280;40102;50.906;6.972;2023-02-14T10:49:12;102756.28;;;7.72;72.26
54194;BME280;40102;50.906;6.972;2023-02-14T10:51:48;102733.22;;;7.69;72.29
54194;BME280;40102;50.906;6.972;2023-02-14T10:54:26;102741.13;;;7.75;72.42
54194;BME280;40102;50.906;6.972;2023-02-14T10:57:12;102731.34;;;7.76;72.66
54194;BME280;40102;50.906;6.972;2023-02-14T11:02:17;102728.44;;;7.97;72.03
54194;BME280;40102;50.906;6.972;2023-02-14T11:04:44;102721.22;;;8.05;71.69
54194;BME280;40102;50.906;6.972;2023-02-14T11:07:16;102723.78;;;8.13;72.02
54194;BME280;40102;50.906;6.972;2023-02-14T11:09:42;102716.63;;;8.17;72.13
54194;BME280;40102;50.906;6.972;2023-02-14T11:12:08;102700.53;;;8.23;71.90
54194;BME280;40102;50.906;6.972;2023-02-14T11:14:36;102699.53;;;8.33;71.54
54194;BME280;40102;50.906;6.972;2023-02-14T11:17:27;102703.75;;;8.48;71.03
54194;BME280;40102;50.906;6.972;2023-02-14T11:20:03;102701.81;;;8.57;70.90
54194;BME280;40102;50.906;6.972;2023-02-14T11:22:34;102694.59;;;8.64;69.68
54194;BME280;40102;50.906;6.972;2023-02-14T11:25:04;102693.53;;;8.74;69.50
54194;BME280;40102;50.906;6.972;2023-02-14T11:27:30;102673.97;;;8.73;69.70
54194;BME280;40102;50.906;6.972;2023-02-14T11:29:57;102680.78;;;8.91;69.38
54194;BME280;40102;50.906;6.972;2023-02-14T11:32:25;102683.25;;;9.02;68.87
54194;BME280;40102;50.906;6.972;2023-02-14T11:34:55;102683.88;;;9.16;67.82
54194;BME280;40102;50.906;6.972;2023-02-14T11:37:38;102674.91;;;9.20;67.51
54194;BME280;40102;50.906;6.972;2023-02-14T11:40:24;102676.56;;;9.26;67.29
54194;BME280;40102;50.906;6.972;2023-02-14T11:42:51;102678.09;;;9.39;66.13
54194;BME280;40102;50.906;6.972;2023-02-14T11:45:35;102681.56;;;9.44;66.32
54194;BME280;40102;50.906;6.972;2023-02-14T11:51:04;102675.78;;;9.65;66.12
54194;BME280;40102;50.906;6.972;2023-02-14T11:56:08;102664.63;;;9.87;65.75
54194;BME280;40102;50.906;6.972;2023-02-14T11:58:40;102657.25;;;9.98;65.40
54194;BME280;40102;50.906;6.972;2023-02-14T12:01:21;102649.84;;;10.11;64.80
54194;BME280;40102;50.906;6.972;2023-02-14T12:03:49;102629.09;;;10.22;63.77
54194;BME280;40102;50.906;6.972;2023-02-14T12:06:23;102627.97;;;10.32;63.77
54194;BME280;40102;50.906;6.972;2023-02-14T12:08:49;102629.31;;;10.48;63.83
54194;BME280;40102;50.906;6.972;2023-02-14T12:11:22;102625.53;;;10.57;63.44
54194;BME280;40102;50.906;6.972;2023-02-14T12:13:56;102628.91;;;10.63;62.99
54194;BME280;40102;50.906;6.972;2023-02-14T12:16:29;102603.94;;;10.63;63.94
54194;BME280;40102;50.906;6.972;2023-02-14T12:19:06;102585.00;;;10.70;63.72
54194;BME280;40102;50.906;6.972;2023-02-14T12:21:45;102595.63;;;11.06;62.33
54194;BME280;40102;50.906;6.972;2023-02-14T12:24:29;102586.56;;;11.12;62.84
54194;BME280;40102;50.906;6.972;2023-02-14T12:27:04;102603.50;;;11.43;61.78
54194;BME280;40102;50.906;6.972;2023-02-14T12:29:37;102587.94;;;11.56;61.56
54194;BME280;40102;50.906;6.972;2023-02-14T12:34:38;102580.25;;;11.73;60.16
54194;BME280;40102;50.906;6.972;2023-02-14T12:37:13;102567.47;;;11.83;59.83
54194;BME280;40102;50.906;6.972;2023-02-14T12:54:01;102574.59;;;12.38;55.63
54194;BME280;40102;50.906;6.972;2023-02-14T12:56:45;102554.81;;;12.41;54.91
54194;BME280;40102;50.906;6.972;2023-02-14T12:59:41;102564.97;;;12.57;56.15
54194;BME280;40102;50.906;6.972;2023-02-14T13:05:11;102559.50;;;12.85;55.63
54194;BME280;40102;50.906;6.972;2023-02-14T13:18:59;102519.69;;;13.88;52.95
54194;BME280;40102;50.906;6.972;2023-02-14T13:21:33;102525.38;;;14.03;51.27
54194;BME280;40102;50.906;6.972;2023-02-14T13:26:42;102520.44;;;14.14;50.94
54194;BME280;40102;50.906;6.972;2023-02-14T13:29:18;102516.06;;;14.11;50.59
54194;BME280;40102;50.906;6.972;2023-02-14T13:31:45;102507.69;;;13.97;50.28
54194;BME280;40102;50.906;6.972;2023-02-14T13:34:36;102513.38;;;13.68;51.12
54194;BME280;40102;50.906;6.972;2023-02-14T13:37:07;102496.97;;;13.52;51.92
54194;BME280;40102;50.906;6.972;2023-02-14T13:39:41;102500.16;;;13.40;52.52
54194;BME280;40102;50.906;6.972;2023-02-14T13:42:11;102489.06;;;13.25;52.42
54194;BME280;40102;50.906;6.972;2023-02-14T13:44:47;102501.19;;;13.12;52.74
54194;BME280;40102;50.906;6.972;2023-02-14T13:47:23;102500.03;;;12.96;52.30
54194;BME280;40102;50.906;6.972;2023-02-14T13:49:55;102496.59;;;12.68;53.39
54194;BME280;40102;50.906;6.972;2023-02-14T13:52:46;102502.19;;;12.61;53.99
54194;BME280;40102;50.906;6.972;2023-02-14T13:55:23;102493.53;;;12.53;53.93
54194;BME280;40102;50.906;6.972;2023-02-14T13:58:05;102502.31;;;12.58;53.77
54194;BME280;40102;50.906;6.972;2023-02-14T14:00:39;102497.03;;;12.55;53.56
54194;BME280;40102;50.906;6.972;2023-02-14T14:03:14;102482.97;;;12.49;54.30
54194;BME280;40102;50.906;6.972;2023-02-14T14:10:53;102486.59;;;12.96;53.98
54194;BME280;40102;50.906;6.972;2023-02-14T14:18:59;102471.72;;;13.34;52.95
54194;BME280;40102;50.906;6.972;2023-02-14T14:21:35;102459.56;;;13.24;52.82
54194;BME280;40102;50.906;6.972;2023-02-14T14:24:24;102471.94;;;13.28;52.44
54194;BME280;40102;50.906;6.972;2023-02-14T14:27:00;102475.78;;;13.44;52.41
54194;BME280;40102;50.906;6.972;2023-02-14T14:29:39;102467.41;;;13.52;52.02
54194;BME280;40102;50.906;6.972;2023-02-14T14:32:15;102466.41;;;13.54;53.48
54194;BME280;40102;50.906;6.972;2023-02-14T14:34:48;102469.59;;;13.86;52.00
54194;BME280;40102;50.906;6.972;2023-02-14T14:37:16;102446.78;;;13.74;51.82
54194;BME280;40102;50.906;6.972;2023-02-14T14:39:58;102448.34;;;13.80;51.28
54194;BME280;40102;50.906;6.972;2023-02-14T14:42:28;102451.91;;;13.80;50.87
54194;BME280;40102;50.906;6.972;2023-02-14T14:45:02;102439.84;;;13.69;49.96
54194;BME280;40102;50.906;6.972;2023-02-14T14:47:39;102419.41;;;13.43;51.22
54194;BME280;40102;50.906;6.972;2023-02-14T14:50:12;102434.09;;;13.56;51.72
54194;BME280;40102;50.906;6.972;2023-02-14T14:52:41;102449.66;;;13.70;50.28
54194;BME280;40102;50.906;6.972;2023-02-14T14:55:16;102437.84;;;13.52;50.65
54194;BME280;40102;50.906;6.972;2023-02-14T14:57:49;102436.34;;;13.45;51.38
54194;BME280;40102;50.906;6.972;2023-02-14T15:05:39;102438.59;;;13.55;51.07
54194;BME280;40102;50.906;6.972;2023-02-14T15:13:17;102433.22;;;13.55;51.80
54194;BME280;40102;50.906;6.972;2023-02-14T15:16:02;102418.53;;;13.64;51.28
54194;BME280;40102;50.906;6.972;2023-02-14T15:18:27;102404.41;;;13.59;50.60
54194;BME280;40102;50.906;6.972;2023-02-14T15:20:53;102420.41;;;13.62;50.66
54194;BME280;40102;50.906;6.972;2023-02-14T15:23:21;102412.47;;;13.59;50.58
54194;BME280;40102;50.906;6.972;2023-02-14T15:25:47;102411.28;;;13.44;50.57
54194;BME280;40102;50.906;6.972;2023-02-14T15:28:26;102429.97;;;13.25;51.54
54194;BME280;40102;50.906;6.972;2023-02-14T15:31:02;102410.63;;;12.92;52.10
54194;BME280;40102;50.906;6.972;2023-02-14T15:33:30;102418.75;;;12.91;52.40
54194;BME280;40102;50.906;6.972;2023-02-14T15:36:07;102406.50;;;12.84;52.53
54194;BME280;40102;50.906;6.972;2023-02-14T15:38:40;102403.22;;;12.76;53.09
54194;BME280;40102;50.906;6.972;2023-02-14T15:41:06;102423.19;;;12.92;53.33